AWC78E EGCC-LEMD
Flight info
| Callsign | AWC78E |
|---|---|
| Flight time | 2h 2m |
| Altitude | 33000 |
| Route | ASMIM DCT NOKIN P17 BEPHE DCT OSSEP DCT ELNIF DCT ZESPE DCT DAWLY DCT BHD DCT SALCO DCT GOPIN DCT DELOG N864 NONTU |
| Aircraft | A21N/M-SDE2E3FGHIRWXY/LB1 |
Departure
| Time | 2026-05-05 20:13 |
|---|---|
| Airport | Manchester Airport (EGCC) |
Arrival
| Time | 2026-05-05 22:16 |
|---|---|
| Airport | Adolfo Suárez Madrid–Barajas Airport (LEMD) |
| Time | Latitude | Longitude | Altitude | Speed | Heading |
|---|---|---|---|---|---|
| 2026-05-05 19:21 | 53.36554 | -2.28886 | 261 ft | 0 kts | 224° |
| 2026-05-05 19:55 | 53.36555 | -2.28884 | 260 ft | 2 kts | 224° |
| 2026-05-05 19:55 | 53.36570 | -2.28859 | 260 ft | 3 kts | 224° |
| 2026-05-05 19:55 | 53.36582 | -2.28840 | 260 ft | 3 kts | 225° |
| 2026-05-05 19:55 | 53.36596 | -2.28814 | 260 ft | 3 kts | 229° |
| 2026-05-05 19:56 | 53.36610 | -2.28788 | 260 ft | 3 kts | 232° |
| 2026-05-05 19:56 | 53.36622 | -2.28760 | 260 ft | 3 kts | 234° |
| 2026-05-05 19:56 | 53.36634 | -2.28731 | 260 ft | 3 kts | 234° |
| 2026-05-05 19:56 | 53.36647 | -2.28704 | 260 ft | 3 kts | 225° |
| 2026-05-05 19:57 | 53.36660 | -2.28683 | 260 ft | 3 kts | 224° |
| 2026-05-05 19:57 | 53.36669 | -2.28668 | 260 ft | 2 kts | 224° |
| 2026-05-05 19:57 | 53.36670 | -2.28666 | 260 ft | 0 kts | 224° |
| 2026-05-05 20:02 | 53.36670 | -2.28667 | 260 ft | 1 kts | 224° |
| 2026-05-05 20:02 | 53.36658 | -2.28686 | 260 ft | 4 kts | 229° |
| 2026-05-05 20:02 | 53.36641 | -2.28750 | 260 ft | 8 kts | 248° |
| 2026-05-05 20:02 | 53.36585 | -2.28767 | 260 ft | 12 kts | 139° |
| 2026-05-05 20:03 | 53.36559 | -2.28723 | 260 ft | 2 kts | 134° |
| 2026-05-05 20:03 | 53.36551 | -2.28709 | 260 ft | 1 kts | 133° |
| 2026-05-05 20:03 | 53.36535 | -2.28682 | 260 ft | 6 kts | 134° |
| 2026-05-05 20:03 | 53.36499 | -2.28620 | 260 ft | 9 kts | 135° |
| 2026-05-05 20:04 | 53.36461 | -2.28557 | 260 ft | 8 kts | 135° |
| 2026-05-05 20:04 | 53.36409 | -2.28489 | 260 ft | 11 kts | 149° |
| 2026-05-05 20:04 | 53.36340 | -2.28456 | 260 ft | 11 kts | 149° |
| 2026-05-05 20:04 | 53.36280 | -2.28362 | 260 ft | 13 kts | 135° |
| 2026-05-05 20:05 | 53.36211 | -2.28244 | 260 ft | 15 kts | 134° |
| 2026-05-05 20:05 | 53.36130 | -2.28107 | 260 ft | 18 kts | 138° |
| 2026-05-05 20:05 | 53.36035 | -2.27961 | 260 ft | 20 kts | 138° |
| 2026-05-05 20:05 | 53.35918 | -2.27847 | 261 ft | 20 kts | 181° |
| 2026-05-05 20:06 | 53.35774 | -2.27868 | 254 ft | 21 kts | 186° |
| 2026-05-05 20:06 | 53.35630 | -2.27903 | 246 ft | 19 kts | 220° |
| 2026-05-05 20:06 | 53.35559 | -2.28036 | 241 ft | 16 kts | 227° |
| 2026-05-05 20:06 | 53.35467 | -2.28147 | 239 ft | 18 kts | 191° |
| 2026-05-05 20:07 | 53.35334 | -2.28189 | 239 ft | 20 kts | 201° |
| 2026-05-05 20:07 | 53.35217 | -2.28330 | 237 ft | 22 kts | 233° |
| 2026-05-05 20:07 | 53.35117 | -2.28533 | 233 ft | 24 kts | 231° |
| 2026-05-05 20:07 | 53.35009 | -2.28754 | 232 ft | 25 kts | 225° |
| 2026-05-05 20:08 | 53.34910 | -2.28927 | 229 ft | 20 kts | 226° |
| 2026-05-05 20:08 | 53.34838 | -2.29054 | 224 ft | 9 kts | 227° |
| 2026-05-05 20:08 | 53.34790 | -2.29142 | 224 ft | 11 kts | 229° |
| 2026-05-05 20:08 | 53.34739 | -2.29249 | 226 ft | 13 kts | 231° |
| 2026-05-05 20:09 | 53.34682 | -2.29325 | 216 ft | 1 kts | 197° |
| 2026-05-05 20:11 | 53.34675 | -2.29328 | 216 ft | 4 kts | 197° |
| 2026-05-05 20:11 | 53.34586 | -2.29337 | 224 ft | 20 kts | 154° |
| 2026-05-05 20:11 | 53.34531 | -2.29264 | 221 ft | 4 kts | 106° |
| 2026-05-05 20:11 | 53.34541 | -2.29217 | 225 ft | 0 kts | 51° |
| 2026-05-05 20:12 | 53.34542 | -2.29216 | 219 ft | 1 kts | 51° |
| 2026-05-05 20:12 | 53.34631 | -2.29031 | 221 ft | 54 kts | 51° |
| 2026-05-05 20:13 | 53.35012 | -2.28247 | 237 ft | 118 kts | 51° |
| 2026-05-05 20:13 | 53.35635 | -2.26948 | 318 ft | 159 kts | 52° |
| 2026-05-05 20:13 | 53.36311 | -2.25543 | 937 ft | 156 kts | 52° |
| 2026-05-05 20:13 | 53.36993 | -2.24145 | 1641 ft | 157 kts | 51° |
| 2026-05-05 20:14 | 53.37716 | -2.22655 | 2132 ft | 173 kts | 51° |
| 2026-05-05 20:14 | 53.38552 | -2.21020 | 2659 ft | 199 kts | 42° |
| 2026-05-05 20:14 | 53.39879 | -2.19955 | 3131 ft | 229 kts | 9° |
| 2026-05-05 20:14 | 53.41504 | -2.20351 | 3778 ft | 247 kts | 336° |
| 2026-05-05 20:15 | 53.42812 | -2.22270 | 4334 ft | 257 kts | 304° |
| 2026-05-05 20:15 | 53.43275 | -2.25171 | 5242 ft | 268 kts | 271° |
| 2026-05-05 20:15 | 53.42905 | -2.28293 | 6104 ft | 285 kts | 258° |
| 2026-05-05 20:15 | 53.42406 | -2.31258 | 7781 ft | 266 kts | 256° |
| 2026-05-05 20:16 | 53.42161 | -2.34521 | 8098 ft | 294 kts | 282° |
| 2026-05-05 20:16 | 53.42636 | -2.37827 | 9281 ft | 290 kts | 280° |
| 2026-05-05 20:16 | 53.42864 | -2.41155 | 10527 ft | 288 kts | 277° |
| 2026-05-05 20:16 | 53.43069 | -2.44624 | 11075 ft | 312 kts | 277° |
| 2026-05-05 20:17 | 53.43319 | -2.48390 | 11458 ft | 337 kts | 277° |
| 2026-05-05 20:17 | 53.43601 | -2.52441 | 11798 ft | 361 kts | 276° |
| 2026-05-05 20:17 | 53.43602 | -2.56760 | 12091 ft | 383 kts | 264° |
| 2026-05-05 20:17 | 53.42898 | -2.61128 | 12580 ft | 394 kts | 248° |
| 2026-05-05 20:18 | 53.41472 | -2.65080 | 13230 ft | 400 kts | 232° |
| 2026-05-05 20:18 | 53.39414 | -2.68239 | 13916 ft | 405 kts | 216° |
| 2026-05-05 20:18 | 53.36919 | -2.70334 | 14530 ft | 411 kts | 202° |
| 2026-05-05 20:18 | 53.34221 | -2.71962 | 15159 ft | 414 kts | 201° |
| 2026-05-05 20:19 | 53.31500 | -2.73579 | 15782 ft | 417 kts | 201° |
| 2026-05-05 20:19 | 53.28760 | -2.75243 | 16341 ft | 419 kts | 202° |
| 2026-05-05 20:19 | 53.26028 | -2.76927 | 16852 ft | 421 kts | 202° |
| 2026-05-05 20:19 | 53.23266 | -2.78640 | 17336 ft | 424 kts | 202° |
| 2026-05-05 20:20 | 53.20493 | -2.80361 | 17808 ft | 426 kts | 202° |
| 2026-05-05 20:20 | 53.17707 | -2.82088 | 18275 ft | 429 kts | 202° |
| 2026-05-05 20:20 | 53.14896 | -2.83827 | 18731 ft | 431 kts | 202° |
| 2026-05-05 20:20 | 53.12079 | -2.85570 | 19189 ft | 433 kts | 202° |
| 2026-05-05 20:21 | 53.09227 | -2.87034 | 19613 ft | 438 kts | 194° |
| 2026-05-05 20:21 | 53.06183 | -2.87620 | 20062 ft | 444 kts | 183° |
| 2026-05-05 20:21 | 53.03092 | -2.87182 | 20505 ft | 449 kts | 173° |
| 2026-05-05 20:21 | 52.99995 | -2.86320 | 20964 ft | 453 kts | 172° |
| 2026-05-05 20:22 | 52.96885 | -2.85413 | 21484 ft | 456 kts | 172° |
| 2026-05-05 20:22 | 52.93749 | -2.84522 | 22015 ft | 459 kts | 173° |
| 2026-05-05 20:22 | 52.90587 | -2.83651 | 22498 ft | 461 kts | 173° |
| 2026-05-05 20:22 | 52.87415 | -2.82790 | 22965 ft | 464 kts | 173° |
| 2026-05-05 20:23 | 52.84219 | -2.81931 | 23421 ft | 467 kts | 173° |
| 2026-05-05 20:23 | 52.81045 | -2.81076 | 23881 ft | 470 kts | 173° |
| 2026-05-05 20:23 | 52.77809 | -2.80206 | 24337 ft | 473 kts | 173° |
| 2026-05-05 20:23 | 52.74552 | -2.79332 | 24771 ft | 476 kts | 173° |
| 2026-05-05 20:24 | 52.71288 | -2.78455 | 25314 ft | 475 kts | 173° |
| 2026-05-05 20:24 | 52.68029 | -2.77584 | 25906 ft | 472 kts | 173° |
| 2026-05-05 20:24 | 52.64793 | -2.76720 | 26476 ft | 470 kts | 173° |
| 2026-05-05 20:24 | 52.61566 | -2.75988 | 27039 ft | 466 kts | 178° |
| 2026-05-05 20:25 | 52.58335 | -2.75981 | 27576 ft | 462 kts | 185° |
| 2026-05-05 20:25 | 52.55135 | -2.76270 | 28105 ft | 460 kts | 185° |
| 2026-05-05 20:25 | 52.51941 | -2.76584 | 28586 ft | 459 kts | 185° |
| 2026-05-05 20:25 | 52.48804 | -2.76880 | 29080 ft | 457 kts | 185° |
| 2026-05-05 20:26 | 52.45627 | -2.77163 | 29602 ft | 455 kts | 185° |
| 2026-05-05 20:26 | 52.42483 | -2.77432 | 30092 ft | 453 kts | 185° |
| 2026-05-05 20:26 | 52.39341 | -2.77697 | 30567 ft | 451 kts | 185° |
| 2026-05-05 20:26 | 52.36209 | -2.77964 | 30980 ft | 451 kts | 185° |
| 2026-05-05 20:27 | 52.34127 | -2.78142 | 31255 ft | 451 kts | 184° |
| 2026-05-05 20:27 | 52.29949 | -2.78500 | 31811 ft | 450 kts | 184° |
| 2026-05-05 20:27 | 52.27871 | -2.78678 | 32083 ft | 450 kts | 184° |
| 2026-05-05 20:27 | 52.24750 | -2.78945 | 32459 ft | 449 kts | 184° |
| 2026-05-05 20:28 | 52.21632 | -2.79213 | 32835 ft | 449 kts | 184° |
| 2026-05-05 20:28 | 52.17499 | -2.79567 | 33048 ft | 449 kts | 184° |
| 2026-05-05 20:28 | 52.14381 | -2.79834 | 33051 ft | 449 kts | 184° |
| 2026-05-05 20:29 | 52.09189 | -2.80276 | 33029 ft | 449 kts | 184° |
| 2026-05-05 20:29 | 52.02962 | -2.80805 | 33022 ft | 449 kts | 184° |
| 2026-05-05 20:30 | 51.96723 | -2.81337 | 33009 ft | 450 kts | 184° |
| 2026-05-05 20:30 | 51.90464 | -2.81864 | 33004 ft | 450 kts | 184° |
| 2026-05-05 20:31 | 51.84229 | -2.82554 | 33006 ft | 449 kts | 188° |
| 2026-05-05 20:31 | 51.78063 | -2.83885 | 33004 ft | 450 kts | 188° |
| 2026-05-05 20:32 | 51.71862 | -2.85221 | 33013 ft | 450 kts | 188° |
| 2026-05-05 20:32 | 51.65642 | -2.86544 | 33006 ft | 451 kts | 188° |
| 2026-05-05 20:33 | 51.59412 | -2.87867 | 33000 ft | 451 kts | 188° |
| 2026-05-05 20:33 | 51.53282 | -2.89898 | 33010 ft | 451 kts | 199° |
| 2026-05-05 20:34 | 51.47445 | -2.93407 | 33007 ft | 452 kts | 201° |
| 2026-05-05 20:34 | 51.41555 | -2.96975 | 33001 ft | 453 kts | 201° |
| 2026-05-05 20:35 | 51.35663 | -3.00505 | 33001 ft | 453 kts | 200° |
| 2026-05-05 20:35 | 51.29790 | -3.04009 | 33001 ft | 454 kts | 200° |
| 2026-05-05 20:36 | 51.23877 | -3.07528 | 33011 ft | 454 kts | 200° |
| 2026-05-05 20:36 | 51.17952 | -3.11039 | 33011 ft | 454 kts | 200° |
| 2026-05-05 20:37 | 51.12022 | -3.14549 | 33007 ft | 454 kts | 200° |
| 2026-05-05 20:37 | 51.06094 | -3.18047 | 33003 ft | 455 kts | 200° |
| 2026-05-05 20:38 | 51.00190 | -3.21517 | 33002 ft | 455 kts | 200° |
| 2026-05-05 20:38 | 50.94248 | -3.25006 | 33002 ft | 455 kts | 200° |
| 2026-05-05 20:39 | 50.88309 | -3.28480 | 33271 ft | 456 kts | 200° |
| 2026-05-05 20:39 | 50.85328 | -3.30223 | 33638 ft | 456 kts | 200° |
| 2026-05-05 20:39 | 50.82361 | -3.31956 | 33997 ft | 455 kts | 200° |
| 2026-05-05 20:39 | 50.79391 | -3.33685 | 34310 ft | 455 kts | 200° |
| 2026-05-05 20:40 | 50.76454 | -3.35394 | 34599 ft | 455 kts | 200° |
| 2026-05-05 20:40 | 50.73485 | -3.37117 | 34883 ft | 456 kts | 200° |
| 2026-05-05 20:40 | 50.70498 | -3.38847 | 35023 ft | 456 kts | 200° |
| 2026-05-05 20:41 | 50.64548 | -3.42290 | 35018 ft | 456 kts | 200° |
| 2026-05-05 20:41 | 50.58577 | -3.45680 | 34988 ft | 456 kts | 197° |
| 2026-05-05 20:42 | 50.52366 | -3.47350 | 34995 ft | 457 kts | 186° |
| 2026-05-05 20:42 | 50.46047 | -3.48353 | 35000 ft | 457 kts | 186° |
| 2026-05-05 20:43 | 50.39722 | -3.49368 | 34994 ft | 457 kts | 184° |
| 2026-05-05 20:43 | 50.33359 | -3.49761 | 34996 ft | 458 kts | 182° |
| 2026-05-05 20:44 | 50.26995 | -3.50093 | 34986 ft | 458 kts | 182° |
| 2026-05-05 20:44 | 50.20673 | -3.50435 | 34988 ft | 458 kts | 182° |
| 2026-05-05 20:45 | 50.11137 | -3.50955 | 35086 ft | 456 kts | 182° |
| 2026-05-05 20:45 | 50.07970 | -3.51126 | 35394 ft | 455 kts | 182° |
| 2026-05-05 20:45 | 50.04805 | -3.51298 | 35709 ft | 454 kts | 182° |
| 2026-05-05 20:46 | 50.01644 | -3.51470 | 35976 ft | 454 kts | 182° |
| 2026-05-05 20:46 | 49.98487 | -3.51642 | 36219 ft | 454 kts | 182° |
| 2026-05-05 20:46 | 49.95328 | -3.51813 | 36431 ft | 455 kts | 182° |
| 2026-05-05 20:46 | 49.92161 | -3.51983 | 36638 ft | 456 kts | 182° |
| 2026-05-05 20:47 | 49.89037 | -3.52152 | 36924 ft | 454 kts | 182° |
| 2026-05-05 20:47 | 49.85888 | -3.52321 | 37248 ft | 451 kts | 182° |
| 2026-05-05 20:47 | 49.82755 | -3.52489 | 37551 ft | 449 kts | 182° |
| 2026-05-05 20:47 | 49.79641 | -3.52656 | 37761 ft | 449 kts | 182° |
| 2026-05-05 20:48 | 49.76518 | -3.52824 | 37928 ft | 449 kts | 182° |
| 2026-05-05 20:48 | 49.73394 | -3.52992 | 38088 ft | 450 kts | 182° |
| 2026-05-05 20:48 | 49.70301 | -3.53167 | 38228 ft | 451 kts | 182° |
| 2026-05-05 20:48 | 49.67128 | -3.53359 | 38411 ft | 451 kts | 182° |
| 2026-05-05 20:49 | 49.64035 | -3.53545 | 38586 ft | 451 kts | 182° |
| 2026-05-05 20:49 | 49.60895 | -3.53731 | 38760 ft | 451 kts | 182° |
| 2026-05-05 20:49 | 49.57756 | -3.53916 | 38919 ft | 452 kts | 182° |
| 2026-05-05 20:49 | 49.54610 | -3.54100 | 39030 ft | 453 kts | 182° |
| 2026-05-05 20:50 | 49.48312 | -3.54468 | 39022 ft | 453 kts | 182° |
| 2026-05-05 20:50 | 49.42010 | -3.54841 | 39008 ft | 453 kts | 182° |
| 2026-05-05 20:51 | 49.35751 | -3.55207 | 38988 ft | 453 kts | 182° |
| 2026-05-05 20:51 | 49.29452 | -3.55573 | 38991 ft | 453 kts | 182° |
| 2026-05-05 20:52 | 49.23149 | -3.55939 | 38991 ft | 453 kts | 182° |
| 2026-05-05 20:52 | 49.16843 | -3.56303 | 38990 ft | 453 kts | 182° |
| 2026-05-05 20:53 | 49.10543 | -3.56668 | 38991 ft | 453 kts | 182° |
| 2026-05-05 20:53 | 49.04234 | -3.57033 | 38990 ft | 453 kts | 182° |
| 2026-05-05 20:54 | 48.97980 | -3.57389 | 38991 ft | 453 kts | 182° |
| 2026-05-05 20:54 | 48.91671 | -3.57751 | 38992 ft | 453 kts | 182° |
| 2026-05-05 20:55 | 48.85361 | -3.58111 | 38994 ft | 454 kts | 182° |
| 2026-05-05 20:55 | 48.79060 | -3.58472 | 38994 ft | 454 kts | 182° |
| 2026-05-05 20:56 | 48.72788 | -3.58829 | 38988 ft | 454 kts | 182° |
| 2026-05-05 20:56 | 48.66483 | -3.59187 | 38993 ft | 454 kts | 182° |
| 2026-05-05 20:57 | 48.60166 | -3.59544 | 38992 ft | 455 kts | 182° |
| 2026-05-05 20:57 | 48.53838 | -3.59902 | 38991 ft | 455 kts | 182° |
| 2026-05-05 20:58 | 48.47510 | -3.60259 | 38998 ft | 455 kts | 182° |
| 2026-05-05 20:58 | 48.41179 | -3.60615 | 38990 ft | 455 kts | 182° |
| 2026-05-05 20:59 | 48.34896 | -3.60967 | 38991 ft | 455 kts | 182° |
| 2026-05-05 20:59 | 48.28567 | -3.61323 | 38991 ft | 455 kts | 182° |
| 2026-05-05 21:00 | 48.22236 | -3.61677 | 38989 ft | 455 kts | 182° |
| 2026-05-05 21:00 | 48.15939 | -3.62027 | 38990 ft | 455 kts | 182° |
| 2026-05-05 21:01 | 48.09609 | -3.62379 | 38983 ft | 455 kts | 182° |
| 2026-05-05 21:01 | 48.03275 | -3.62730 | 38979 ft | 456 kts | 182° |
| 2026-05-05 21:02 | 47.96928 | -3.63082 | 38981 ft | 456 kts | 182° |
| 2026-05-05 21:02 | 47.90587 | -3.63432 | 38975 ft | 456 kts | 182° |
| 2026-05-05 21:03 | 47.84291 | -3.63775 | 38971 ft | 456 kts | 182° |
| 2026-05-05 21:03 | 47.77954 | -3.64125 | 38972 ft | 456 kts | 182° |
| 2026-05-05 21:04 | 47.71626 | -3.64471 | 38971 ft | 455 kts | 182° |
| 2026-05-05 21:04 | 47.65282 | -3.64815 | 38973 ft | 457 kts | 182° |
| 2026-05-05 21:05 | 47.58965 | -3.65164 | 38971 ft | 457 kts | 182° |
| 2026-05-05 21:05 | 47.52621 | -3.65508 | 38971 ft | 457 kts | 182° |
| 2026-05-05 21:06 | 47.46272 | -3.65850 | 38969 ft | 457 kts | 182° |
| 2026-05-05 21:06 | 47.39919 | -3.66193 | 38971 ft | 457 kts | 182° |
| 2026-05-05 21:07 | 47.33569 | -3.66535 | 38968 ft | 456 kts | 182° |
| 2026-05-05 21:07 | 47.27266 | -3.66876 | 38972 ft | 457 kts | 182° |
| 2026-05-05 21:08 | 47.20915 | -3.67215 | 38971 ft | 456 kts | 182° |
| 2026-05-05 21:08 | 47.14562 | -3.67554 | 38971 ft | 457 kts | 182° |
| 2026-05-05 21:09 | 47.08211 | -3.67894 | 38969 ft | 457 kts | 182° |
| 2026-05-05 21:09 | 47.01872 | -3.68380 | 38969 ft | 456 kts | 185° |
| 2026-05-05 21:10 | 46.95581 | -3.69127 | 38971 ft | 457 kts | 185° |
| 2026-05-05 21:10 | 46.89240 | -3.69881 | 38970 ft | 457 kts | 185° |
| 2026-05-05 21:11 | 46.82905 | -3.70627 | 38970 ft | 456 kts | 185° |
| 2026-05-05 21:11 | 46.76575 | -3.71374 | 38970 ft | 457 kts | 185° |
| 2026-05-05 21:12 | 46.70274 | -3.72110 | 38967 ft | 457 kts | 185° |
| 2026-05-05 21:12 | 46.63933 | -3.72854 | 38971 ft | 457 kts | 185° |
| 2026-05-05 21:13 | 46.57589 | -3.73595 | 38972 ft | 458 kts | 185° |
| 2026-05-05 21:13 | 46.51234 | -3.74333 | 38970 ft | 458 kts | 185° |
| 2026-05-05 21:14 | 46.44918 | -3.75069 | 38971 ft | 458 kts | 185° |
| 2026-05-05 21:14 | 46.38571 | -3.75804 | 38972 ft | 458 kts | 185° |
| 2026-05-05 21:15 | 46.32208 | -3.76547 | 38970 ft | 458 kts | 185° |
| 2026-05-05 21:15 | 46.25853 | -3.77276 | 38969 ft | 459 kts | 185° |
| 2026-05-05 21:16 | 46.19488 | -3.78008 | 38971 ft | 459 kts | 185° |
| 2026-05-05 21:16 | 46.13165 | -3.78738 | 38981 ft | 459 kts | 185° |
| 2026-05-05 21:17 | 46.06804 | -3.79466 | 39000 ft | 459 kts | 185° |
| 2026-05-05 21:17 | 46.00437 | -3.80196 | 38999 ft | 459 kts | 185° |
| 2026-05-05 21:18 | 45.94067 | -3.80921 | 39001 ft | 459 kts | 185° |
| 2026-05-05 21:18 | 45.87740 | -3.81641 | 39007 ft | 459 kts | 185° |
| 2026-05-05 21:19 | 45.81371 | -3.82363 | 39010 ft | 459 kts | 185° |
| 2026-05-05 21:19 | 45.75009 | -3.83086 | 39009 ft | 459 kts | 185° |
| 2026-05-05 21:20 | 45.68644 | -3.83805 | 39024 ft | 459 kts | 186° |
| 2026-05-05 21:20 | 45.62275 | -3.84524 | 39015 ft | 459 kts | 186° |
| 2026-05-05 21:21 | 45.55960 | -3.85236 | 39027 ft | 458 kts | 185° |
| 2026-05-05 21:21 | 45.49600 | -3.85948 | 39028 ft | 458 kts | 186° |
| 2026-05-05 21:22 | 45.43245 | -3.86662 | 39028 ft | 458 kts | 186° |
| 2026-05-05 21:22 | 45.36892 | -3.87373 | 39029 ft | 458 kts | 186° |
| 2026-05-05 21:23 | 45.30542 | -3.88079 | 39030 ft | 458 kts | 186° |
| 2026-05-05 21:23 | 45.24243 | -3.88780 | 39030 ft | 458 kts | 186° |
| 2026-05-05 21:24 | 45.17893 | -3.89486 | 39029 ft | 457 kts | 186° |
| 2026-05-05 21:24 | 45.11559 | -3.90189 | 39034 ft | 457 kts | 186° |
| 2026-05-05 21:25 | 45.05219 | -3.90887 | 39040 ft | 457 kts | 186° |
| 2026-05-05 21:25 | 44.98927 | -3.91581 | 39040 ft | 456 kts | 186° |
| 2026-05-05 21:26 | 44.92603 | -3.92278 | 39040 ft | 456 kts | 186° |
| 2026-05-05 21:26 | 44.86274 | -3.92973 | 39040 ft | 456 kts | 186° |
| 2026-05-05 21:27 | 44.79942 | -3.93668 | 39040 ft | 456 kts | 186° |
| 2026-05-05 21:27 | 44.73615 | -3.94359 | 39047 ft | 456 kts | 186° |
| 2026-05-05 21:28 | 44.67327 | -3.95039 | 39050 ft | 456 kts | 186° |
| 2026-05-05 21:28 | 44.61006 | -3.95723 | 39051 ft | 456 kts | 186° |
| 2026-05-05 21:29 | 44.54688 | -3.96415 | 39048 ft | 456 kts | 187° |
| 2026-05-05 21:29 | 44.48362 | -3.97107 | 39042 ft | 456 kts | 187° |
| 2026-05-05 21:30 | 44.42075 | -3.97787 | 39040 ft | 456 kts | 187° |
| 2026-05-05 21:30 | 44.35738 | -3.98471 | 39039 ft | 456 kts | 187° |
| 2026-05-05 21:31 | 44.29381 | -3.98481 | 39042 ft | 459 kts | 179° |
| 2026-05-05 21:31 | 44.23009 | -3.97840 | 39045 ft | 459 kts | 178° |
| 2026-05-05 21:32 | 44.16668 | -3.97205 | 39050 ft | 459 kts | 178° |
| 2026-05-05 21:32 | 44.10297 | -3.96583 | 39050 ft | 459 kts | 178° |
| 2026-05-05 21:33 | 44.03922 | -3.95957 | 39051 ft | 459 kts | 178° |
| 2026-05-05 21:33 | 43.97536 | -3.95336 | 39051 ft | 459 kts | 178° |
| 2026-05-05 21:34 | 43.91158 | -3.94717 | 39050 ft | 459 kts | 178° |
| 2026-05-05 21:34 | 43.84788 | -3.94106 | 39049 ft | 459 kts | 178° |
| 2026-05-05 21:35 | 43.78463 | -3.93496 | 39050 ft | 459 kts | 178° |
| 2026-05-05 21:35 | 43.72091 | -3.92882 | 39051 ft | 458 kts | 179° |
| 2026-05-05 21:36 | 43.65734 | -3.92273 | 39050 ft | 458 kts | 179° |
| 2026-05-05 21:36 | 43.59370 | -3.91659 | 39051 ft | 458 kts | 179° |
| 2026-05-05 21:37 | 43.53051 | -3.91053 | 39051 ft | 458 kts | 179° |
| 2026-05-05 21:37 | 43.46701 | -3.90454 | 39050 ft | 457 kts | 179° |
| 2026-05-05 21:38 | 43.40392 | -3.90915 | 39052 ft | 453 kts | 189° |
| 2026-05-05 21:38 | 43.34124 | -3.91878 | 39051 ft | 453 kts | 189° |
| 2026-05-05 21:39 | 43.27855 | -3.92817 | 39050 ft | 453 kts | 189° |
| 2026-05-05 21:39 | 43.21643 | -3.93732 | 39049 ft | 452 kts | 189° |
| 2026-05-05 21:40 | 43.15394 | -3.94648 | 39049 ft | 452 kts | 189° |
| 2026-05-05 21:40 | 43.09150 | -3.95573 | 39051 ft | 451 kts | 189° |
| 2026-05-05 21:41 | 43.02913 | -3.96489 | 39049 ft | 450 kts | 189° |
| 2026-05-05 21:41 | 42.96683 | -3.97402 | 39050 ft | 450 kts | 189° |
| 2026-05-05 21:42 | 42.90496 | -3.98304 | 39051 ft | 450 kts | 190° |
| 2026-05-05 21:42 | 42.84274 | -3.99213 | 39049 ft | 450 kts | 190° |
| 2026-05-05 21:43 | 42.78056 | -4.00107 | 39050 ft | 449 kts | 190° |
| 2026-05-05 21:43 | 42.71870 | -4.01003 | 39052 ft | 451 kts | 190° |
| 2026-05-05 21:44 | 42.65634 | -4.01904 | 39051 ft | 450 kts | 190° |
| 2026-05-05 21:44 | 42.59411 | -4.02809 | 39050 ft | 450 kts | 190° |
| 2026-05-05 21:45 | 42.53185 | -4.03712 | 39050 ft | 450 kts | 190° |
| 2026-05-05 21:45 | 42.46999 | -4.04603 | 39050 ft | 449 kts | 190° |
| 2026-05-05 21:46 | 42.40798 | -4.05493 | 39051 ft | 449 kts | 190° |
| 2026-05-05 21:46 | 42.34586 | -4.06386 | 39050 ft | 448 kts | 191° |
| 2026-05-05 21:47 | 42.28380 | -4.07274 | 39051 ft | 448 kts | 191° |
| 2026-05-05 21:47 | 42.22184 | -4.08166 | 39050 ft | 448 kts | 191° |
| 2026-05-05 21:48 | 42.16034 | -4.09041 | 39051 ft | 448 kts | 191° |
| 2026-05-05 21:48 | 42.09838 | -4.09924 | 39050 ft | 448 kts | 191° |
| 2026-05-05 21:49 | 42.03642 | -4.10802 | 39051 ft | 447 kts | 190° |
| 2026-05-05 21:49 | 41.97439 | -4.11539 | 39051 ft | 448 kts | 189° |
| 2026-05-05 21:50 | 41.91260 | -4.12251 | 39050 ft | 448 kts | 189° |
| 2026-05-05 21:50 | 41.85053 | -4.12961 | 39051 ft | 448 kts | 189° |
| 2026-05-05 21:51 | 41.78848 | -4.13668 | 38988 ft | 443 kts | 189° |
| 2026-05-05 21:51 | 41.75771 | -4.14017 | 38145 ft | 447 kts | 189° |
| 2026-05-05 21:51 | 41.72665 | -4.14365 | 37482 ft | 446 kts | 190° |
| 2026-05-05 21:52 | 41.66510 | -4.15055 | 36841 ft | 443 kts | 191° |
| 2026-05-05 21:52 | 41.63446 | -4.15403 | 36583 ft | 442 kts | 191° |
| 2026-05-05 21:52 | 41.60384 | -4.15748 | 36331 ft | 442 kts | 191° |
| 2026-05-05 21:53 | 41.57354 | -4.16092 | 36083 ft | 443 kts | 191° |
| 2026-05-05 21:53 | 41.54282 | -4.16439 | 35833 ft | 445 kts | 191° |
| 2026-05-05 21:53 | 41.51178 | -4.16790 | 35583 ft | 449 kts | 191° |
| 2026-05-05 21:53 | 41.48070 | -4.17144 | 35334 ft | 450 kts | 191° |
| 2026-05-05 21:54 | 41.44945 | -4.17497 | 35086 ft | 450 kts | 191° |
| 2026-05-05 21:54 | 41.41826 | -4.17847 | 34836 ft | 450 kts | 191° |
| 2026-05-05 21:54 | 41.38712 | -4.18197 | 34554 ft | 449 kts | 191° |
| 2026-05-05 21:54 | 41.35641 | -4.18542 | 34229 ft | 449 kts | 192° |
| 2026-05-05 21:55 | 41.32533 | -4.18890 | 33864 ft | 448 kts | 192° |
| 2026-05-05 21:55 | 41.29426 | -4.19238 | 33497 ft | 448 kts | 192° |
| 2026-05-05 21:55 | 41.26312 | -4.19563 | 33125 ft | 450 kts | 191° |
| 2026-05-05 21:55 | 41.23178 | -4.19771 | 32753 ft | 451 kts | 190° |
| 2026-05-05 21:56 | 41.20046 | -4.19962 | 32380 ft | 452 kts | 190° |
| 2026-05-05 21:56 | 41.16899 | -4.20155 | 32005 ft | 453 kts | 190° |
| 2026-05-05 21:56 | 41.13754 | -4.20345 | 31628 ft | 453 kts | 190° |
| 2026-05-05 21:56 | 41.10604 | -4.20539 | 31254 ft | 454 kts | 190° |
| 2026-05-05 21:57 | 41.07447 | -4.20731 | 30872 ft | 455 kts | 190° |
| 2026-05-05 21:57 | 41.04317 | -4.20919 | 30504 ft | 455 kts | 190° |
| 2026-05-05 21:57 | 41.01114 | -4.21114 | 30134 ft | 456 kts | 190° |
| 2026-05-05 21:57 | 40.97977 | -4.21305 | 29767 ft | 457 kts | 190° |
| 2026-05-05 21:58 | 40.94798 | -4.21496 | 29392 ft | 457 kts | 190° |
| 2026-05-05 21:58 | 40.91621 | -4.21688 | 29019 ft | 458 kts | 190° |
| 2026-05-05 21:58 | 40.88432 | -4.21881 | 28646 ft | 460 kts | 189° |
| 2026-05-05 21:58 | 40.85230 | -4.22074 | 28270 ft | 461 kts | 189° |
| 2026-05-05 21:59 | 40.82028 | -4.22263 | 27909 ft | 462 kts | 189° |
| 2026-05-05 21:59 | 40.78852 | -4.22453 | 27537 ft | 463 kts | 189° |
| 2026-05-05 21:59 | 40.75639 | -4.22649 | 27169 ft | 464 kts | 189° |
| 2026-05-05 21:59 | 40.72406 | -4.22847 | 26790 ft | 464 kts | 189° |
| 2026-05-05 22:00 | 40.69179 | -4.23042 | 26421 ft | 466 kts | 189° |
| 2026-05-05 22:00 | 40.65932 | -4.23239 | 26013 ft | 467 kts | 189° |
| 2026-05-05 22:00 | 40.62682 | -4.23432 | 25595 ft | 468 kts | 189° |
| 2026-05-05 22:00 | 40.59424 | -4.23626 | 25162 ft | 469 kts | 189° |
| 2026-05-05 22:01 | 40.56155 | -4.23820 | 24734 ft | 470 kts | 189° |
| 2026-05-05 22:01 | 40.52854 | -4.23742 | 24301 ft | 480 kts | 181° |
| 2026-05-05 22:01 | 40.49564 | -4.22786 | 23864 ft | 491 kts | 167° |
| 2026-05-05 22:01 | 40.46386 | -4.21103 | 23453 ft | 492 kts | 163° |
| 2026-05-05 22:02 | 40.43297 | -4.19384 | 23034 ft | 488 kts | 163° |
| 2026-05-05 22:02 | 40.40127 | -4.17682 | 22575 ft | 485 kts | 164° |
| 2026-05-05 22:02 | 40.37102 | -4.15835 | 22118 ft | 489 kts | 155° |
| 2026-05-05 22:02 | 40.34419 | -4.13074 | 21669 ft | 496 kts | 139° |
| 2026-05-05 22:03 | 40.32313 | -4.09477 | 21234 ft | 502 kts | 124° |
| 2026-05-05 22:03 | 40.30917 | -4.05276 | 20674 ft | 503 kts | 108° |
| 2026-05-05 22:03 | 40.30177 | -4.00820 | 20054 ft | 499 kts | 102° |
| 2026-05-05 22:03 | 40.29492 | -3.96494 | 19411 ft | 473 kts | 105° |
| 2026-05-05 22:04 | 40.28668 | -3.92427 | 18744 ft | 451 kts | 108° |
| 2026-05-05 22:04 | 40.27752 | -3.88566 | 17897 ft | 437 kts | 110° |
| 2026-05-05 22:04 | 40.26826 | -3.84877 | 16995 ft | 428 kts | 110° |
| 2026-05-05 22:04 | 40.25897 | -3.81223 | 16057 ft | 419 kts | 110° |
| 2026-05-05 22:05 | 40.24984 | -3.77657 | 15112 ft | 410 kts | 110° |
| 2026-05-05 22:05 | 40.24091 | -3.74149 | 14163 ft | 402 kts | 110° |
| 2026-05-05 22:05 | 40.23217 | -3.70704 | 13217 ft | 394 kts | 109° |
| 2026-05-05 22:05 | 40.22359 | -3.67336 | 12268 ft | 386 kts | 109° |
| 2026-05-05 22:06 | 40.21518 | -3.64037 | 11313 ft | 379 kts | 109° |
| 2026-05-05 22:06 | 40.20693 | -3.60799 | 10364 ft | 372 kts | 108° |
| 2026-05-05 22:06 | 40.19881 | -3.57612 | 9416 ft | 366 kts | 108° |
| 2026-05-05 22:06 | 40.19078 | -3.54478 | 8464 ft | 360 kts | 108° |
| 2026-05-05 22:07 | 40.18298 | -3.51443 | 7536 ft | 355 kts | 107° |
| 2026-05-05 22:07 | 40.17546 | -3.48401 | 6588 ft | 348 kts | 102° |
| 2026-05-05 22:07 | 40.17383 | -3.45317 | 5761 ft | 335 kts | 79° |
| 2026-05-05 22:07 | 40.18125 | -3.42566 | 5288 ft | 310 kts | 54° |
| 2026-05-05 22:08 | 40.19593 | -3.40723 | 5081 ft | 280 kts | 27° |
| 2026-05-05 22:08 | 40.21322 | -3.39870 | 5022 ft | 255 kts | 15° |
| 2026-05-05 22:08 | 40.22954 | -3.39147 | 5001 ft | 241 kts | 19° |
| 2026-05-05 22:08 | 40.24471 | -3.38353 | 4983 ft | 226 kts | 18° |
| 2026-05-05 22:09 | 40.25917 | -3.37963 | 4972 ft | 206 kts | 1° |
| 2026-05-05 22:09 | 40.27304 | -3.37981 | 4968 ft | 189 kts | 358° |
| 2026-05-05 22:09 | 40.28513 | -3.37997 | 5002 ft | 164 kts | 359° |
| 2026-05-05 22:09 | 40.29581 | -3.38001 | 4982 ft | 147 kts | 358° |
| 2026-05-05 22:10 | 40.30577 | -3.38110 | 5009 ft | 142 kts | 349° |
| 2026-05-05 22:10 | 40.31530 | -3.38448 | 5011 ft | 142 kts | 340° |
| 2026-05-05 22:10 | 40.32436 | -3.38963 | 5008 ft | 142 kts | 333° |
| 2026-05-05 22:10 | 40.33298 | -3.39588 | 5005 ft | 142 kts | 329° |
| 2026-05-05 22:11 | 40.34128 | -3.40284 | 5002 ft | 142 kts | 327° |
| 2026-05-05 22:11 | 40.34938 | -3.41025 | 4936 ft | 142 kts | 324° |
| 2026-05-05 22:11 | 40.35725 | -3.41803 | 4797 ft | 141 kts | 323° |
| 2026-05-05 22:11 | 40.36493 | -3.42578 | 4618 ft | 141 kts | 323° |
| 2026-05-05 22:12 | 40.37269 | -3.43365 | 4431 ft | 141 kts | 323° |
| 2026-05-05 22:12 | 40.38046 | -3.44153 | 4243 ft | 141 kts | 323° |
| 2026-05-05 22:12 | 40.38820 | -3.44938 | 4057 ft | 140 kts | 322° |
| 2026-05-05 22:12 | 40.39586 | -3.45716 | 3875 ft | 139 kts | 323° |
| 2026-05-05 22:13 | 40.40353 | -3.46495 | 3679 ft | 141 kts | 322° |
| 2026-05-05 22:13 | 40.41124 | -3.47278 | 3502 ft | 141 kts | 322° |
| 2026-05-05 22:13 | 40.41897 | -3.48064 | 3309 ft | 140 kts | 322° |
| 2026-05-05 22:13 | 40.42670 | -3.48850 | 3122 ft | 140 kts | 322° |
| 2026-05-05 22:14 | 40.43432 | -3.49624 | 2932 ft | 140 kts | 323° |
| 2026-05-05 22:14 | 40.44201 | -3.50406 | 2736 ft | 140 kts | 322° |
| 2026-05-05 22:14 | 40.44959 | -3.51196 | 2526 ft | 139 kts | 321° |
| 2026-05-05 22:14 | 40.45723 | -3.51979 | 2319 ft | 139 kts | 323° |
| 2026-05-05 22:15 | 40.46485 | -3.52750 | 2129 ft | 139 kts | 323° |
| 2026-05-05 22:15 | 40.47252 | -3.53516 | 1957 ft | 138 kts | 323° |
| 2026-05-05 22:15 | 40.47968 | -3.54243 | 1936 ft | 112 kts | 320° |
| 2026-05-05 22:15 | 40.48452 | -3.54739 | 1944 ft | 75 kts | 322° |
| 2026-05-05 22:16 | 40.48723 | -3.55030 | 1954 ft | 34 kts | 308° |
| 2026-05-05 22:16 | 40.48814 | -3.55256 | 1957 ft | 17 kts | 292° |
| 2026-05-05 22:16 | 40.48859 | -3.55395 | 1957 ft | 17 kts | 299° |
| 2026-05-05 22:16 | 40.48947 | -3.55521 | 1959 ft | 20 kts | 323° |
| 2026-05-05 22:17 | 40.49066 | -3.55640 | 1960 ft | 23 kts | 322° |
| 2026-05-05 22:17 | 40.49196 | -3.55775 | 1968 ft | 25 kts | 322° |
| 2026-05-05 22:17 | 40.49336 | -3.55913 | 1965 ft | 26 kts | 322° |
| 2026-05-05 22:17 | 40.49411 | -3.56018 | 1965 ft | 13 kts | 280° |
| 2026-05-05 22:18 | 40.49411 | -3.56139 | 1964 ft | 15 kts | 270° |
| 2026-05-05 22:18 | 40.49370 | -3.56245 | 1967 ft | 12 kts | 187° |
| 2026-05-05 22:18 | 40.49330 | -3.56275 | 1968 ft | 7 kts | 270° |
| 2026-05-05 22:18 | 40.49331 | -3.56327 | 1970 ft | 1 kts | 270° |
| 2026-05-05 22:19 | 40.49331 | -3.56345 | 1972 ft | 1 kts | 270° |
| 2026-05-05 22:19 | 40.49331 | -3.56348 | 1970 ft | 0 kts | 270° |